Time;durP1;ratioP1;P1;durP2;ratioP2;P2;SDS_P1;SDS_P2;PMS_P1;PMS_P2;Temp;Humidity;BMP_temperature;BMP_pressure;BME280_temperature;BME280_humidity;BME280_pressure;Samples;Min_cycle;Max_cycle;Signal;HPM_P1;HPM_P2
2024/04/17 00:01:49;;;;;;;6.80;2.70;;;;;;;3.81;87.82;97660.20;269303;1275;22566;-80
2024/04/17 00:07:50;;;;;;;10.70;3.50;;;;;;;3.66;88.62;97648.81;271307;1275;22367;-81
2024/04/17 00:13:52;;;;;;;3.30;2.20;;;;;;;3.57;88.59;97638.99;269771;1274;22654;-81
2024/04/17 00:19:53;;;;;;;4.50;2.10;;;;;;;3.42;88.80;97625.83;268901;1275;22538;-80
2024/04/17 00:25:55;;;;;;;8.70;3.50;;;;;;;3.26;89.44;97619.77;272148;1275;22624;-80
2024/04/17 00:31:58;;;;;;;8.80;3.10;;;;;;;3.05;89.49;97618.40;268286;1275;23459;-81
2024/04/17 00:38:00;;;;;;;6.20;2.50;;;;;;;2.86;89.94;97610.86;268943;1272;22715;-80
2024/04/17 00:44:04;;;;;;;7.70;2.40;;;;;;;2.68;89.83;97600.46;270588;1270;22318;-81
2024/04/17 00:50:06;;;;;;;5.50;2.80;;;;;;;2.50;89.70;97592.92;272308;1274;22422;-81
2024/04/17 00:56:08;;;;;;;7.50;3.10;;;;;;;2.39;90.03;97591.45;272534;1276;22700;-81
2024/04/17 01:02:12;;;;;;;7.00;3.10;;;;;;;2.30;90.54;97589.66;271208;1275;22613;-81
2024/04/17 01:08:14;;;;;;;6.40;2.70;;;;;;;2.22;91.03;97585.92;268894;1275;22532;-81
2024/04/17 01:14:15;;;;;;;7.10;2.70;;;;;;;2.18;92.12;97588.30;270198;1274;22443;-81
2024/04/17 01:20:26;;;;;;;6.00;2.80;;;;;;;2.15;92.54;97591.25;272350;1273;23042;-81
2024/04/17 01:26:34;;;;;;;6.50;2.60;;;;;;;2.07;92.49;97582.15;271647;1272;22300;-81
2024/04/17 01:32:42;;;;;;;4.40;2.00;;;;;;;1.94;92.96;97580.23;272333;1275;22327;-80
2024/04/17 01:38:45;;;;;;;7.00;2.30;;;;;;;1.81;93.20;97574.55;271388;1275;23516;-80
2024/04/17 01:44:46;;;;;;;4.30;2.40;;;;;;;1.67;92.91;97571.98;271045;1275;22397;-81
2024/04/17 01:50:48;;;;;;;5.60;2.80;;;;;;;1.62;93.66;97560.11;272014;1260;22561;-81
2024/04/17 01:56:51;;;;;;;5.90;2.70;;;;;;;1.60;93.82;97553.43;270224;1259;22277;-81
2024/04/17 02:03:09;;;;;;;5.60;2.70;;;;;;;1.57;94.00;97551.21;272346;1275;22327;-81
2024/04/17 02:09:11;;;;;;;5.20;2.60;;;;;;;1.54;94.42;97551.44;272415;1260;22336;-81
2024/04/17 02:15:12;;;;;;;6.90;3.10;;;;;;;1.53;95.25;97554.73;272409;1275;22407;-80
2024/04/17 02:21:14;;;;;;;5.80;2.70;;;;;;;1.54;95.67;97553.38;270760;1273;22273;-80
2024/04/17 02:27:15;;;;;;;6.80;3.10;;;;;;;1.56;96.24;97563.98;272439;1274;22429;-81
2024/04/17 02:33:17;;;;;;;6.00;2.70;;;;;;;1.65;96.98;97563.86;272427;1274;22236;-80
2024/04/17 02:39:20;;;;;;;7.00;3.20;;;;;;;1.79;98.00;97559.46;271887;1275;22564;-84
2024/04/17 02:45:25;;;;;;;9.40;3.80;;;;;;;1.92;98.70;97562.70;272323;1275;23156;-81
2024/04/17 02:51:27;;;;;;;6.90;3.60;;;;;;;2.04;98.40;97553.92;272486;1275;22271;-80
2024/04/17 02:57:29;;;;;;;11.70;4.50;;;;;;;2.14;98.80;97550.05;268957;1275;22630;-80
2024/04/17 03:03:31;;;;;;;10.90;4.10;;;;;;;2.24;99.00;97545.95;268980;1274;22949;-81
2024/04/17 03:09:35;;;;;;;8.10;4.30;;;;;;;2.28;99.40;97536.45;270411;1275;22960;-82
2024/04/17 03:15:36;;;;;;;10.70;4.40;;;;;;;2.37;99.85;97540.42;271506;1275;22403;-81
2024/04/17 03:21:38;;;;;;;12.80;4.50;;;;;;;2.49;99.97;97543.59;270378;1275;22449;-82
2024/04/17 03:27:39;;;;;;;10.40;5.30;;;;;;;2.59;99.98;97536.75;272388;1271;22261;-81
2024/04/17 03:33:41;;;;;;;14.70;6.20;;;;;;;2.68;100.00;97537.70;272355;1275;22414;-82
2024/04/17 03:39:52;;;;;;;10.30;6.10;;;;;;;2.78;100.00;97550.70;272209;1275;22368;-81
2024/04/17 03:45:54;;;;;;;17.20;6.80;;;;;;;2.89;100.00;97552.15;271079;1275;22344;-81
2024/04/17 03:51:55;;;;;;;14.20;6.50;;;;;;;3.00;100.00;97556.81;272592;1275;25245;-81
2024/04/17 03:57:57;;;;;;;14.00;6.00;;;;;;;3.08;100.00;97557.98;270405;1274;23738;-82
2024/04/17 04:03:58;;;;;;;13.90;6.60;;;;;;;3.17;100.00;97559.52;269047;1274;23740;-80
2024/04/17 04:10:00;;;;;;;17.00;8.10;;;;;;;3.26;100.00;97567.00;268795;1273;22595;-80
2024/04/17 04:16:02;;;;;;;17.50;7.90;;;;;;;3.37;100.00;97578.14;268781;1275;22958;-81
2024/04/17 04:22:04;;;;;;;15.90;6.50;;;;;;;3.45;100.00;97587.17;269229;1273;22418;-82
2024/04/17 04:28:05;;;;;;;15.00;7.00;;;;;;;3.56;100.00;97594.77;270702;1273;22546;-81
2024/04/17 04:34:08;;;;;;;15.50;7.20;;;;;;;3.70;100.00;97600.88;270894;1273;22258;-81
2024/04/17 04:40:10;;;;;;;15.90;8.00;;;;;;;3.86;100.00;97604.52;270358;1270;23557;-81
2024/04/17 04:46:11;;;;;;;25.00;10.10;;;;;;;3.94;100.00;97605.80;271078;1273;22570;-81
2024/04/17 04:52:16;;;;;;;17.30;8.70;;;;;;;4.05;100.00;97612.99;269960;1274;22593;-81
2024/04/17 04:58:25;;;;;;;17.70;8.90;;;;;;;4.16;100.00;97616.08;271790;1260;22264;-81
2024/04/17 05:04:29;;;;;;;19.40;7.90;;;;;;;4.26;100.00;97620.73;269430;1273;22562;-80
2024/04/17 05:10:32;;;;;;;34.10;11.60;;;;;;;4.35;100.00;97621.86;272370;1274;22294;-81
2024/04/17 05:16:59;;;;;;;35.90;13.30;;;;;;;4.43;100.00;97625.77;271619;1275;22589;-80
2024/04/17 05:23:01;;;;;;;29.90;12.70;;;;;;;4.53;100.00;97624.95;271453;1274;22436;-80
2024/04/17 05:29:03;;;;;;;33.30;14.10;;;;;;;4.62;100.00;97622.66;269657;1272;23312;-80
2024/04/17 05:35:05;;;;;;;39.90;15.30;;;;;;;4.73;100.00;97622.19;269345;1273;22575;-80
2024/04/17 05:41:07;;;;;;;31.80;13.30;;;;;;;4.81;100.00;97633.36;270252;1271;22544;-80
2024/04/17 05:47:09;;;;;;;16.70;7.90;;;;;;;4.89;100.00;97638.73;269278;1273;22602;-81
2024/04/17 05:53:11;;;;;;;17.50;7.50;;;;;;;4.97;100.00;97644.39;271547;1273;22614;-82
2024/04/17 05:59:12;;;;;;;22.50;7.80;;;;;;;5.06;100.00;97644.25;270231;1273;22325;-81
2024/04/17 06:05:14;;;;;;;18.90;7.50;;;;;;;5.20;100.00;97646.05;272097;1274;22658;-81
2024/04/17 06:11:16;;;;;;;18.10;8.80;;;;;;;5.30;100.00;97652.73;270201;1273;22775;-82
2024/04/17 06:17:17;;;;;;;14.70;7.40;;;;;;;5.35;100.00;97660.52;269912;1273;22535;-81
2024/04/17 06:23:19;;;;;;;14.30;6.90;;;;;;;5.39;100.00;97665.69;269818;1273;22382;-84
2024/04/17 06:29:21;;;;;;;9.90;5.60;;;;;;;5.49;100.00;97676.34;271653;1273;22378;-82
2024/04/17 06:35:22;;;;;;;13.90;6.00;;;;;;;5.56;100.00;97683.70;272166;1266;22395;-80
2024/04/17 06:41:24;;;;;;;15.20;6.70;;;;;;;5.62;100.00;97682.13;272208;1275;22226;-82
2024/04/17 06:47:26;;;;;;;18.50;6.80;;;;;;;5.70;100.00;97682.27;272210;1273;22343;-81
2024/04/17 06:53:27;;;;;;;18.50;8.20;;;;;;;5.73;100.00;97684.02;272349;1275;23325;-84
2024/04/17 06:59:29;;;;;;;23.80;9.30;;;;;;;5.75;100.00;97689.00;272218;1273;23249;-81
2024/04/17 07:05:32;;;;;;;18.90;9.30;;;;;;;5.80;100.00;97690.85;272181;1273;22258;-80
2024/04/17 07:11:36;;;;;;;17.30;9.80;;;;;;;5.84;100.00;97700.13;272353;1275;22379;-80
2024/04/17 07:17:38;;;;;;;20.10;9.90;;;;;;;5.81;100.00;97705.04;272414;1274;22391;-82
2024/04/17 07:23:40;;;;;;;16.40;9.70;;;;;;;5.77;100.00;97713.08;271426;1273;22306;-80
2024/04/17 07:29:44;;;;;;;16.30;10.70;;;;;;;5.74;100.00;97718.01;272445;1275;22279;-81
2024/04/17 07:35:46;;;;;;;19.10;11.80;;;;;;;5.82;100.00;97719.35;272311;1275;23641;-82
2024/04/17 07:41:49;;;;;;;24.30;14.80;;;;;;;5.88;100.00;97721.98;271991;1275;22550;-82
2024/04/17 07:47:51;;;;;;;25.30;14.00;;;;;;;5.96;100.00;97725.77;271173;1274;22490;-82
2024/04/17 07:53:56;;;;;;;25.10;14.60;;;;;;;6.00;100.00;97727.98;270412;1273;23330;-81
2024/04/17 08:00:13;;;;;;;23.60;15.20;;;;;;;6.06;100.00;97729.81;271749;1273;22559;-82
2024/04/17 08:06:17;;;;;;;20.80;13.30;;;;;;;6.14;100.00;97727.02;269821;1272;22404;-81
2024/04/17 08:12:19;;;;;;;25.50;14.20;;;;;;;6.25;100.00;97731.69;272338;1274;22423;-80
2024/04/17 08:18:21;;;;;;;18.40;11.90;;;;;;;6.35;100.00;97734.09;271410;1275;24440;-80
2024/04/17 08:24:25;;;;;;;21.40;12.10;;;;;;;6.38;100.00;97743.75;270146;1274;23437;-81
2024/04/17 08:30:27;;;;;;;14.50;9.40;;;;;;;6.32;100.00;97749.67;270576;1273;22514;-81
2024/04/17 08:36:29;;;;;;;13.50;10.00;;;;;;;6.30;100.00;97760.84;269408;1274;23471;-82
2024/04/17 08:42:35;;;;;;;19.70;12.30;;;;;;;6.33;100.00;97771.58;271630;1273;22573;-80
2024/04/17 08:48:39;;;;;;;21.70;14.10;;;;;;;6.37;100.00;97777.05;272177;1275;22375;-79
2024/04/17 08:54:43;;;;;;;21.40;13.40;;;;;;;6.51;100.00;97774.76;272413;1273;23237;-81
2024/04/17 09:00:49;;;;;;;18.30;12.10;;;;;;;6.67;100.00;97774.16;272317;1265;22359;-80
2024/04/17 09:06:55;;;;;;;16.00;11.50;;;;;;;6.74;100.00;97778.73;272176;1273;22435;-80
2024/04/17 09:12:57;;;;;;;18.90;14.30;;;;;;;6.66;100.00;97787.91;272202;1274;338600;-80
2024/04/17 09:18:59;;;;;;;19.30;14.60;;;;;;;6.60;100.00;97792.13;272043;1275;22523;-82
2024/04/17 09:25:14;;;;;;;17.40;13.90;;;;;;;6.59;100.00;97797.95;271841;1275;22239;-82
2024/04/17 09:31:16;;;;;;;16.70;14.70;;;;;;;6.55;100.00;97801.73;272255;1273;22244;-81
2024/04/17 09:37:20;;;;;;;20.70;15.80;;;;;;;6.59;100.00;97805.33;272231;1275;24149;-81
2024/04/17 09:43:24;;;;;;;21.00;16.70;;;;;;;6.67;100.00;97803.85;272203;1273;23126;-81
2024/04/17 09:49:28;;;;;;;21.60;16.50;;;;;;;6.79;100.00;97804.33;272384;1275;23430;-80
2024/04/17 09:55:30;;;;;;;21.50;14.80;;;;;;;6.94;100.00;97808.79;270487;1274;23742;-80
2024/04/17 10:01:37;;;;;;;25.20;17.80;;;;;;;6.91;100.00;97807.58;271541;1274;22835;-81
2024/04/17 10:07:40;;;;;;;21.50;16.50;;;;;;;6.86;100.00;97803.21;271226;1273;22405;-81
2024/04/17 10:13:43;;;;;;;19.40;15.20;;;;;;;6.80;100.00;97804.48;271820;1273;22566;-80
2024/04/17 10:19:51;;;;;;;18.10;14.10;;;;;;;6.91;100.00;97809.52;270958;1275;22994;-81
2024/04/17 10:25:57;;;;;;;17.20;12.80;;;;;;;7.02;100.00;97809.98;269476;1273;23572;-81
2024/04/17 10:31:59;;;;;;;17.80;13.70;;;;;;;7.13;100.00;97810.45;270274;1273;22561;-81
2024/04/17 10:38:06;;;;;;;21.40;14.40;;;;;;;7.16;100.00;97804.08;270065;1274;22568;-80
2024/04/17 10:44:09;;;;;;;16.60;14.80;;;;;;;7.22;100.00;97808.48;270191;1275;23425;-81
2024/04/17 10:50:14;;;;;;;18.70;15.50;;;;;;;7.36;100.00;97809.40;271435;1275;22503;-81
2024/04/17 10:56:16;;;;;;;16.40;13.90;;;;;;;7.54;100.00;97816.32;272107;1275;22474;-81
2024/04/17 11:02:25;;;;;;;16.90;13.00;;;;;;;7.51;100.00;97825.89;272445;1275;22819;-83
2024/04/17 11:08:26;;;;;;;16.60;13.30;;;;;;;7.34;100.00;97828.76;272530;1274;22279;-83
2024/04/17 11:14:28;;;;;;;19.10;13.70;;;;;;;7.25;100.00;97827.23;272299;1275;22422;-81
2024/04/17 11:20:30;;;;;;;14.10;12.20;;;;;;;7.23;100.00;97828.31;269659;1269;22584;-81
2024/04/17 11:26:31;;;;;;;14.80;12.30;;;;;;;7.29;100.00;97834.33;272193;1274;23336;-82
2024/04/17 11:32:34;;;;;;;16.60;12.80;;;;;;;7.36;100.00;97835.38;272013;1275;22355;-82
2024/04/17 11:38:39;;;;;;;16.80;13.80;;;;;;;7.48;100.00;97834.75;272880;1275;22265;-81
2024/04/17 11:44:48;;;;;;;14.70;13.00;;;;;;;7.54;100.00;97838.66;272415;1273;22277;-81
2024/04/17 11:50:50;;;;;;;14.30;11.40;;;;;;;7.45;100.00;97848.26;272567;1275;22419;-82
2024/04/17 11:57:02;;;;;;;16.60;12.00;;;;;;;7.34;100.00;97852.80;272269;1274;22433;-82
2024/04/17 12:03:04;;;;;;;14.40;10.90;;;;;;;7.38;100.00;97850.55;272262;1274;23333;-83
2024/04/17 12:09:06;;;;;;;13.70;9.90;;;;;;;7.56;100.00;97853.45;272159;1275;22385;-82
2024/04/17 12:15:09;;;;;;;12.20;8.50;;;;;;;7.77;99.65;97851.98;272353;1275;22327;-82
2024/04/17 12:21:31;;;;;;;13.70;8.50;;;;;;;7.94;99.27;97852.90;272365;1275;22300;-82
2024/04/17 12:27:32;;;;;;;9.90;7.50;;;;;;;8.08;99.49;97854.50;272233;1275;22251;-83
2024/04/17 12:33:35;;;;;;;9.80;6.70;;;;;;;8.16;98.29;97852.57;272813;1273;22315;-82
2024/04/17 12:39:42;;;;;;;7.70;6.70;;;;;;;8.23;97.58;97853.46;272172;1274;22405;-82
2024/04/17 12:45:44;;;;;;;6.70;5.90;;;;;;;8.33;97.72;97853.80;270360;1274;22609;-82
2024/04/17 12:51:52;;;;;;;6.00;5.40;;;;;;;8.28;97.09;97855.73;271182;1270;22646;-82
2024/04/17 12:57:54;;;;;;;8.60;6.90;;;;;;;8.13;97.10;97852.33;271016;1275;22286;-82
2024/04/17 13:04:00;;;;;;;7.90;5.70;;;;;;;8.12;96.53;97845.39;272704;1271;22252;-82
2024/04/17 13:10:02;;;;;;;8.50;5.00;;;;;;;8.23;96.60;97843.57;271829;1274;22575;-82
2024/04/17 13:16:04;;;;;;;5.60;4.00;;;;;;;8.44;96.43;97839.17;270028;1275;22584;-81
2024/04/17 13:22:06;;;;;;;5.40;3.70;;;;;;;8.61;95.60;97838.33;269185;1275;22529;-82
2024/04/17 13:28:07;;;;;;;5.00;4.10;;;;;;;8.55;94.44;97841.84;271395;1273;22410;-82
2024/04/17 13:34:09;;;;;;;6.00;4.00;;;;;;;8.44;94.89;97841.81;272391;1275;23031;-82
2024/04/17 13:40:14;;;;;;;8.50;3.90;;;;;;;8.31;94.12;97847.57;271288;1275;22581;-82
2024/04/17 13:46:16;;;;;;;7.20;4.40;;;;;;;8.23;94.00;97852.60;270973;1273;24678;-81
2024/04/17 13:52:35;;;;;;;5.40;4.70;;;;;;;8.22;94.09;97850.73;270434;1273;22618;-86
2024/04/17 13:58:37;;;;;;;6.40;5.00;;;;;;;8.40;94.10;97851.94;269742;1273;22562;-82
2024/04/17 14:04:42;;;;;;;6.80;5.30;;;;;;;8.61;92.38;97855.70;270289;1274;22563;-82
2024/04/17 14:11:01;;;;;;;10.20;4.50;;;;;;;8.67;91.16;97852.20;271851;1273;22396;-81
2024/04/17 14:17:03;;;;;;;6.90;4.40;;;;;;;8.69;90.52;97853.13;272636;1275;23314;-81
2024/04/17 14:23:05;;;;;;;5.80;4.80;;;;;;;8.65;89.35;97851.27;272858;1275;22293;-81
2024/04/17 14:29:07;;;;;;;7.70;5.20;;;;;;;8.55;88.88;97852.20;272571;1278;22252;-82
2024/04/17 14:35:09;;;;;;;6.60;4.70;;;;;;;8.47;89.73;97853.52;272599;1264;22267;-81
2024/04/17 14:41:12;;;;;;;5.10;4.40;;;;;;;8.45;89.90;97853.27;272769;1274;22218;-81
2024/04/17 14:47:14;;;;;;;7.00;4.90;;;;;;;8.44;89.50;97853.81;272762;1276;22257;-81
2024/04/17 14:53:16;;;;;;;7.80;5.00;;;;;;;8.48;89.61;97850.94;272858;1277;22394;-82
2024/04/17 14:59:18;;;;;;;7.50;4.60;;;;;;;8.51;90.34;97849.85;272681;1275;22255;-81
2024/04/17 15:05:20;;;;;;;8.90;4.70;;;;;;;8.50;90.45;97852.20;272628;1273;22737;-82
2024/04/17 15:11:26;;;;;;;6.50;4.30;;;;;;;8.52;91.14;97856.48;271791;1275;23004;-83
2024/04/17 15:17:29;;;;;;;6.40;3.60;;;;;;;8.43;89.94;97857.17;272475;1274;23351;-83
2024/04/17 15:23:35;;;;;;;10.30;4.00;;;;;;;8.33;90.47;97861.98;272523;1273;22261;-82
2024/04/17 15:29:37;;;;;;;6.30;4.20;;;;;;;8.29;91.41;97867.35;271170;1274;22582;-82
2024/04/17 15:35:47;;;;;;;5.60;4.00;;;;;;;8.29;92.48;97870.70;271980;1270;23416;-82
2024/04/17 15:41:49;;;;;;;5.20;4.00;;;;;;;8.15;91.80;97870.41;271845;1268;23333;-81
2024/04/17 15:48:09;;;;;;;6.00;2.40;;;;;;;7.99;92.82;97876.73;271805;1269;22253;-81
2024/04/17 15:54:11;;;;;;;6.80;3.50;;;;;;;7.63;93.05;97890.29;273453;1269;23143;-83
2024/04/17 16:00:15;;;;;;;8.40;3.80;;;;;;;7.22;93.93;97887.95;272348;1269;22375;-82
2024/04/17 16:06:21;;;;;;;6.80;4.30;;;;;;;7.00;95.83;97890.13;273393;1270;22307;-82
2024/04/17 16:12:23;;;;;;;3.90;2.70;;;;;;;6.92;97.19;97892.08;272008;1269;23704;-82
2024/04/17 16:18:29;;;;;;;6.40;3.80;;;;;;;6.82;98.23;97897.20;272734;1269;22384;-83
2024/04/17 16:24:31;;;;;;;8.30;4.70;;;;;;;6.73;98.41;97906.70;273109;1269;22400;-83
2024/04/17 16:30:45;;;;;;;8.30;5.20;;;;;;;6.56;98.87;97921.23;271644;1269;22528;-82
2024/04/17 16:36:49;;;;;;;4.20;2.60;;;;;;;6.49;100.00;97931.65;271783;1269;22297;-82
2024/04/17 16:42:51;;;;;;;2.70;1.70;;;;;;;6.40;100.00;97943.52;271886;1269;23366;-82
2024/04/17 16:48:56;;;;;;;4.10;2.00;;;;;;;6.26;100.00;97953.99;265234;1269;10002075;-81
2024/04/17 16:54:59;;;;;;;3.30;2.00;;;;;;;6.21;100.00;97961.14;273476;1273;22252;-82
2024/04/17 17:01:04;;;;;;;3.00;2.00;;;;;;;6.16;100.00;97964.90;273032;1269;22659;-82
2024/04/17 17:07:17;;;;;;;4.20;2.80;;;;;;;6.16;100.00;97968.33;271841;1269;22398;-81
2024/04/17 17:13:45;;;;;;;7.00;3.00;;;;;;;6.07;100.00;97975.05;271640;1269;23394;-80
2024/04/17 17:20:08;;;;;;;;;;;;;;;;;;;;;
2024/04/17 17:26:29;;;;;;;5.50;3.70;;;;;;;5.80;100.00;97991.27;271052;1263;23881;-81
2024/04/17 17:32:49;;;;;;;4.40;2.80;;;;;;;5.83;100.00;97997.69;270786;1269;22553;-82
2024/04/17 17:38:53;;;;;;;5.50;3.30;;;;;;;5.81;100.00;98003.55;271125;1269;23969;-82
2024/04/17 17:45:05;;;;;;;10.30;6.70;;;;;;;5.74;100.00;98010.42;273456;1269;23430;-83
2024/04/17 17:51:15;;;;;;;7.50;5.30;;;;;;;5.69;100.00;98026.17;272599;1269;23018;-82
2024/04/17 17:57:17;;;;;;;8.10;5.70;;;;;;;5.63;100.00;98032.38;270196;1269;23685;-82
2024/04/17 18:03:22;;;;;;;9.40;5.60;;;;;;;5.61;100.00;98041.09;272051;1269;22399;-82
2024/04/17 18:09:35;;;;;;;9.00;6.40;;;;;;;5.67;100.00;98053.92;273088;1269;23394;-81
2024/04/17 18:15:37;;;;;;;9.60;6.50;;;;;;;5.70;100.00;98058.84;271422;1269;22405;-81
2024/04/17 18:21:39;;;;;;;10.90;7.10;;;;;;;5.66;100.00;98062.20;272850;1269;22295;-81
2024/04/17 18:27:41;;;;;;;10.90;8.00;;;;;;;5.63;100.00;98068.83;270586;1269;25325;-81
2024/04/17 18:33:50;;;;;;;10.30;7.30;;;;;;;5.62;100.00;98078.66;270060;1269;22596;-82
2024/04/17 18:39:52;;;;;;;12.60;8.70;;;;;;;5.61;100.00;98088.41;271948;1269;22406;-81
2024/04/17 18:45:58;;;;;;;12.70;8.20;;;;;;;5.53;100.00;98093.10;273135;1269;22285;-81
2024/04/17 18:51:59;;;;;;;14.40;8.70;;;;;;;5.44;100.00;98093.96;273082;1269;22427;-82
2024/04/17 18:58:03;;;;;;;10.00;8.00;;;;;;;5.34;100.00;98099.20;272908;1270;22397;-82
2024/04/17 19:04:05;;;;;;;12.10;7.70;;;;;;;5.26;100.00;98103.70;273390;1269;22272;-81
2024/04/17 19:10:08;;;;;;;11.50;7.90;;;;;;;5.23;100.00;98102.59;272412;1269;22376;-81
2024/04/17 19:16:11;;;;;;;14.10;9.40;;;;;;;5.21;100.00;98110.68;273020;1270;22455;-82
2024/04/17 19:22:13;;;;;;;12.40;8.70;;;;;;;5.18;100.00;98119.55;273101;1269;23214;-81
2024/04/17 19:28:16;;;;;;;12.10;8.50;;;;;;;5.15;100.00;98122.52;273132;1254;22312;-81
2024/04/17 19:34:17;;;;;;;10.90;8.30;;;;;;;5.20;100.00;98127.95;273140;1269;22260;-81
2024/04/17 19:40:20;;;;;;;10.80;8.40;;;;;;;5.22;100.00;98130.55;270868;1269;25260;-81
2024/04/17 19:46:23;;;;;;;12.50;9.60;;;;;;;5.24;100.00;98135.63;272035;1269;22391;-81
2024/04/17 19:52:25;;;;;;;13.50;9.00;;;;;;;5.27;100.00;98139.48;273288;1272;22350;-81
2024/04/17 19:58:30;;;;;;;11.00;8.30;;;;;;;5.31;100.00;98138.70;272956;1269;22290;-82
2024/04/17 20:04:43;;;;;;;12.40;9.00;;;;;;;5.28;100.00;98140.36;272405;1269;23494;-81
2024/04/17 20:10:44;;;;;;;10.80;8.20;;;;;;;5.25;100.00;98141.16;272772;1269;23617;-80
2024/04/17 20:16:53;;;;;;;13.90;9.60;;;;;;;5.25;100.00;98143.02;271395;1269;23081;-81
2024/04/17 20:22:55;;;;;;;12.80;8.90;;;;;;;5.31;100.00;98136.45;272601;1269;22554;-80
2024/04/17 20:28:57;;;;;;;14.80;10.40;;;;;;;5.33;100.00;98133.23;269963;1269;22720;-80
2024/04/17 20:34:58;;;;;;;15.10;10.70;;;;;;;5.34;100.00;98133.64;272205;1269;22275;-81
2024/04/17 20:41:02;;;;;;;13.00;9.50;;;;;;;5.35;100.00;98136.98;273574;1269;22375;-81
2024/04/17 20:47:05;;;;;;;18.80;10.30;;;;;;;5.31;100.00;98135.75;272118;1269;23733;-81
2024/04/17 20:53:07;;;;;;;13.10;9.80;;;;;;;5.24;100.00;98135.55;270885;1269;22328;-80
2024/04/17 20:59:09;;;;;;;14.20;9.90;;;;;;;5.17;100.00;98133.88;272503;1269;22531;-81
2024/04/17 21:05:11;;;;;;;17.50;10.20;;;;;;;5.16;100.00;98134.72;269775;1269;22686;-81
2024/04/17 21:11:13;;;;;;;14.20;10.80;;;;;;;5.13;100.00;98137.45;269776;1270;145885;-80
2024/04/17 21:17:15;;;;;;;15.20;12.10;;;;;;;5.10;100.00;98137.00;270146;1265;24323;-80
2024/04/17 21:23:17;;;;;;;17.30;12.20;;;;;;;5.09;100.00;98134.57;269456;1270;22565;-80
2024/04/17 21:29:19;;;;;;;17.70;13.20;;;;;;;5.09;100.00;98138.52;273004;1269;22730;-80
2024/04/17 21:35:26;;;;;;;18.30;12.80;;;;;;;5.06;100.00;98143.74;273078;1269;22560;-81
2024/04/17 21:41:30;;;;;;;18.20;13.30;;;;;;;4.87;100.00;98142.66;269595;1270;22693;-80
2024/04/17 21:47:32;;;;;;;22.50;15.50;;;;;;;4.71;100.00;98146.45;271632;1270;22390;-80
2024/04/17 21:53:35;;;;;;;26.90;15.50;;;;;;;4.68;100.00;98149.33;271972;1270;22243;-80
2024/04/17 21:59:37;;;;;;;18.80;13.50;;;;;;;4.61;100.00;98152.66;273059;1269;22402;-80
2024/04/17 22:05:39;;;;;;;22.30;15.20;;;;;;;4.48;100.00;98162.77;270335;1269;23523;-80
2024/04/17 22:11:41;;;;;;;26.30;16.50;;;;;;;4.32;100.00;98173.27;273022;1269;22313;-80
2024/04/17 22:17:43;;;;;;;19.30;14.10;;;;;;;4.11;100.00;98175.42;272983;1270;22408;-79
2024/04/17 22:23:50;;;;;;;28.30;19.70;;;;;;;4.02;100.00;98172.89;273119;1270;22393;-80
2024/04/17 22:29:52;;;;;;;31.60;19.70;;;;;;;3.99;100.00;98184.34;273020;1265;23623;-81
2024/04/17 22:35:53;;;;;;;27.10;17.80;;;;;;;3.93;100.00;98188.84;273166;1270;23438;-80
2024/04/17 22:41:55;;;;;;;30.00;18.70;;;;;;;3.78;100.00;98195.20;272440;1270;22486;-81
2024/04/17 22:47:56;;;;;;;27.00;18.30;;;;;;;3.52;100.00;98200.16;272911;1260;23116;-80
2024/04/17 22:53:58;;;;;;;30.00;17.30;;;;;;;3.52;100.00;98204.11;272649;1269;23401;-81
2024/04/17 22:59:59;;;;;;;30.90;18.80;;;;;;;3.56;100.00;98206.31;272804;1269;22428;-80
2024/04/17 23:06:01;;;;;;;31.20;20.30;;;;;;;3.64;100.00;98204.27;273062;1270;22418;-81
2024/04/17 23:12:03;;;;;;;35.90;21.50;;;;;;;3.73;100.00;98201.95;271203;1270;22384;-80
2024/04/17 23:18:05;;;;;;;39.00;24.30;;;;;;;3.78;100.00;98208.04;272988;1270;22269;-80
2024/04/17 23:24:06;;;;;;;35.40;21.30;;;;;;;3.83;100.00;98210.69;273474;1275;22361;-80
2024/04/17 23:30:08;;;;;;;31.70;20.70;;;;;;;3.85;100.00;98212.30;273093;1270;23171;-81
2024/04/17 23:36:10;;;;;;;39.40;21.30;;;;;;;3.84;100.00;98211.13;273170;1270;22229;-81
2024/04/17 23:42:15;;;;;;;34.70;20.30;;;;;;;3.78;100.00;98211.13;273269;1270;22238;-81
2024/04/17 23:48:17;;;;;;;38.20;20.00;;;;;;;3.60;100.00;98212.07;272924;1270;23200;-80
2024/04/17 23:54:18;;;;;;;37.00;20.90;;;;;;;3.37;100.00;98209.36;272789;1270;22249;-81
